sensor_id;sensor_type;location;lat;lon;timestamp;pressure;altitude;pressure_sealevel;temperature;humidity
929;BME280;451;47.988;7.842;2023-01-30T00:07:15;99363.84;;;-0.45;100.00
929;BME280;451;47.988;7.842;2023-01-30T00:16:18;99328.56;;;-0.78;100.00
929;BME280;451;47.988;7.842;2023-01-30T00:25:23;99193.91;;;-1.35;100.00
929;BME280;451;47.988;7.842;2023-01-30T00:34:26;99316.41;;;-0.44;100.00
929;BME280;451;47.988;7.842;2023-01-30T00:43:30;99305.88;;;-0.72;100.00
929;BME280;451;47.988;7.842;2023-01-30T00:52:50;99274.81;;;-0.70;100.00
929;BME280;451;47.988;7.842;2023-01-30T01:01:54;99286.97;;;-0.72;100.00
929;BME280;451;47.988;7.842;2023-01-30T01:10:57;99272.25;;;-0.70;100.00
929;BME280;451;47.988;7.842;2023-01-30T01:20:02;99278.34;;;-0.89;100.00
929;BME280;451;47.988;7.842;2023-01-30T01:29:10;99258.97;;;-1.13;100.00
929;BME280;451;47.988;7.842;2023-01-30T01:38:15;99342.66;;;-0.68;100.00
929;BME280;451;47.988;7.842;2023-01-30T01:47:18;99384.03;;;-0.53;99.96
929;BME280;451;47.988;7.842;2023-01-30T01:56:22;99371.41;;;0.07;100.00
929;BME280;451;47.988;7.842;2023-01-30T02:05:29;99450.16;;;0.64;100.00
929;BME280;451;47.988;7.842;2023-01-30T02:14:36;99419.81;;;0.68;100.00
929;BME280;451;47.988;7.842;2023-01-30T02:24:04;99406.78;;;0.54;100.00
929;BME280;451;47.988;7.842;2023-01-30T02:33:23;99402.84;;;0.78;98.71
929;BME280;451;47.988;7.842;2023-01-30T02:42:33;99343.34;;;0.78;97.06
929;BME280;451;47.988;7.842;2023-01-30T02:51:42;99378.34;;;0.99;95.92
929;BME280;451;47.988;7.842;2023-01-30T03:01:15;99392.22;;;0.98;96.96
929;BME280;451;47.988;7.842;2023-01-30T03:10:28;99378.16;;;1.46;93.17
929;BME280;451;47.988;7.842;2023-01-30T03:19:40;99367.88;;;0.71;92.46
929;BME280;451;47.988;7.842;2023-01-30T03:28:48;99356.56;;;0.26;95.09
929;BME280;451;47.988;7.842;2023-01-30T03:37:53;99344.34;;;0.30;96.35
929;BME280;451;47.988;7.842;2023-01-30T03:46:57;99334.56;;;0.19;93.41
929;BME280;451;47.988;7.842;2023-01-30T03:56:01;99309.09;;;-1.01;100.00
929;BME280;451;47.988;7.842;2023-01-30T04:05:08;99217.81;;;-1.32;98.85
929;BME280;451;47.988;7.842;2023-01-30T04:14:13;99297.25;;;-1.05;100.00
929;BME280;451;47.988;7.842;2023-01-30T04:23:37;99301.47;;;-0.70;100.00
929;BME280;451;47.988;7.842;2023-01-30T04:32:42;99273.28;;;-1.25;98.03
929;BME280;451;47.988;7.842;2023-01-30T04:41:47;99324.53;;;-0.67;100.00
929;BME280;451;47.988;7.842;2023-01-30T04:50:52;99350.22;;;0.00;97.26
929;BME280;451;47.988;7.842;2023-01-30T04:59:57;99356.91;;;0.36;95.95
929;BME280;451;47.988;7.842;2023-01-30T05:09:02;99344.81;;;0.36;96.45
929;BME280;451;47.988;7.842;2023-01-30T05:18:06;99315.50;;;0.67;95.12
929;BME280;451;47.988;7.842;2023-01-30T05:27:09;99366.41;;;0.67;94.59
929;BME280;451;47.988;7.842;2023-01-30T05:36:16;99334.72;;;0.48;95.61
929;BME280;451;47.988;7.842;2023-01-30T05:45:19;99369.19;;;0.78;94.46
929;BME280;451;47.988;7.842;2023-01-30T05:54:23;99338.41;;;0.44;95.24
929;BME280;451;47.988;7.842;2023-01-30T06:03:26;99315.69;;;0.49;95.84
929;BME280;451;47.988;7.842;2023-01-30T06:12:30;99249.03;;;0.38;92.91
929;BME280;451;47.988;7.842;2023-01-30T06:21:33;99314.16;;;0.90;91.49
929;BME280;451;47.988;7.842;2023-01-30T06:30:38;99205.91;;;0.38;89.42
929;BME280;451;47.988;7.842;2023-01-30T06:39:41;99326.81;;;1.53;85.69
929;BME280;451;47.988;7.842;2023-01-30T06:48:45;99320.06;;;1.79;82.67
929;BME280;451;47.988;7.842;2023-01-30T06:57:48;99316.81;;;1.33;83.57
929;BME280;451;47.988;7.842;2023-01-30T07:06:53;99296.63;;;1.09;85.01
929;BME280;451;47.988;7.842;2023-01-30T07:15:56;99305.06;;;1.70;80.35
929;BME280;451;47.988;7.842;2023-01-30T07:25:00;99276.41;;;1.16;82.92
929;BME280;451;47.988;7.842;2023-01-30T07:34:03;99296.63;;;1.09;83.28
929;BME280;451;47.988;7.842;2023-01-30T07:43:10;99228.69;;;0.48;85.08
929;BME280;451;47.988;7.842;2023-01-30T07:52:14;99326.56;;;1.43;84.13
929;BME280;451;47.988;7.842;2023-01-30T08:01:18;99343.53;;;2.18;79.89
929;BME280;451;47.988;7.842;2023-01-30T08:10:21;99347.97;;;2.16;84.95
929;BME280;451;47.988;7.842;2023-01-30T08:19:25;99334.47;;;2.38;83.94
929;BME280;451;47.988;7.842;2023-01-30T08:28:29;99326.56;;;2.13;85.74
929;BME280;451;47.988;7.842;2023-01-30T08:37:33;99285.31;;;3.01;83.76
929;BME280;451;47.988;7.842;2023-01-30T08:46:36;99328.50;;;2.90;79.29
929;BME280;451;47.988;7.842;2023-01-30T08:55:42;99357.41;;;2.98;77.71
929;BME280;451;47.988;7.842;2023-01-30T09:04:45;99351.50;;;3.08;77.82
929;BME280;451;47.988;7.842;2023-01-30T09:13:50;99347.69;;;3.39;75.40
929;BME280;451;47.988;7.842;2023-01-30T09:22:53;99360.34;;;3.31;77.34
929;BME280;451;47.988;7.842;2023-01-30T09:31:57;99327.53;;;3.30;76.41
929;BME280;451;47.988;7.842;2023-01-30T09:41:26;99330.44;;;3.38;75.81
929;BME280;451;47.988;7.842;2023-01-30T09:50:50;99334.50;;;3.42;74.97
929;BME280;451;47.988;7.842;2023-01-30T10:00:02;99305.50;;;3.48;76.64
929;BME280;451;47.988;7.842;2023-01-30T10:09:22;99322.09;;;4.20;72.41
929;BME280;451;47.988;7.842;2023-01-30T10:18:54;99299.47;;;4.33;72.42
929;BME280;451;47.988;7.842;2023-01-30T10:28:03;99293.91;;;3.78;73.96
929;BME280;451;47.988;7.842;2023-01-30T10:37:11;99262.84;;;3.51;75.66
929;BME280;451;47.988;7.842;2023-01-30T10:46:28;99273.22;;;3.76;74.98
929;BME280;451;47.988;7.842;2023-01-30T10:55:35;99250.31;;;4.41;72.80
929;BME280;451;47.988;7.842;2023-01-30T11:04:48;99199.66;;;4.45;72.56
929;BME280;451;47.988;7.842;2023-01-30T11:14:01;99223.94;;;4.92;70.94
929;BME280;451;47.988;7.842;2023-01-30T11:23:08;99220.88;;;5.32;69.96
929;BME280;451;47.988;7.842;2023-01-30T11:32:26;99171.13;;;4.90;70.60
929;BME280;451;47.988;7.842;2023-01-30T11:41:30;99162.81;;;5.52;68.13
929;BME280;451;47.988;7.842;2023-01-30T11:50:38;99152.84;;;5.57;69.33
929;BME280;451;47.988;7.842;2023-01-30T11:59:45;99131.19;;;5.34;71.18
929;BME280;451;47.988;7.842;2023-01-30T12:08:51;99146.03;;;5.77;72.07
929;BME280;451;47.988;7.842;2023-01-30T12:27:16;99132.94;;;5.56;70.79
929;BME280;451;47.988;7.842;2023-01-30T12:36:29;99161.91;;;5.31;73.57
929;BME280;451;47.988;7.842;2023-01-30T12:45:50;99149.72;;;5.74;71.79
929;BME280;451;47.988;7.842;2023-01-30T12:55:05;99130.06;;;5.59;73.44
929;BME280;451;47.988;7.842;2023-01-30T13:04:29;99149.59;;;5.10;79.26
929;BME280;451;47.988;7.842;2023-01-30T13:13:41;99134.16;;;5.41;80.45
929;BME280;451;47.988;7.842;2023-01-30T13:22:53;99150.88;;;4.94;81.95
929;BME280;451;47.988;7.842;2023-01-30T13:32:03;99115.25;;;5.05;86.40
929;BME280;451;47.988;7.842;2023-01-30T13:41:11;99102.25;;;5.48;82.47
929;BME280;451;47.988;7.842;2023-01-30T13:50:33;99123.41;;;5.12;83.64
929;BME280;451;47.988;7.842;2023-01-30T13:59:57;99142.72;;;4.87;90.11
929;BME280;451;47.988;7.842;2023-01-30T14:09:19;99146.50;;;5.05;85.52
929;BME280;451;47.988;7.842;2023-01-30T14:18:27;99142.66;;;4.54;87.60
929;BME280;451;47.988;7.842;2023-01-30T14:27:34;99159.59;;;4.59;89.14
929;BME280;451;47.988;7.842;2023-01-30T14:36:45;99151.41;;;4.41;91.23
929;BME280;451;47.988;7.842;2023-01-30T14:45:50;99172.38;;;4.16;90.37
929;BME280;451;47.988;7.842;2023-01-30T14:54:55;99185.25;;;4.53;91.03
929;BME280;451;47.988;7.842;2023-01-30T15:04:02;99197.94;;;4.22;91.49
929;BME280;451;47.988;7.842;2023-01-30T15:13:20;99221.94;;;4.50;91.08
929;BME280;451;47.988;7.842;2023-01-30T15:22:35;99242.81;;;4.13;94.66
929;BME280;451;47.988;7.842;2023-01-30T15:31:53;99268.25;;;4.33;95.01
929;BME280;451;47.988;7.842;2023-01-30T15:40:59;99254.94;;;4.25;96.09
929;BME280;451;47.988;7.842;2023-01-30T15:50:06;99283.47;;;4.27;97.47
929;BME280;451;47.988;7.842;2023-01-30T15:59:25;99285.06;;;4.40;95.57
929;BME280;451;47.988;7.842;2023-01-30T16:08:32;99316.84;;;4.57;93.90
929;BME280;451;47.988;7.842;2023-01-30T16:17:38;99287.56;;;4.42;92.67
929;BME280;451;47.988;7.842;2023-01-30T16:26:45;99347.31;;;4.43;93.42
929;BME280;451;47.988;7.842;2023-01-30T16:35:50;99339.78;;;4.52;95.24
929;BME280;451;47.988;7.842;2023-01-30T16:45:02;99359.63;;;4.65;95.01
929;BME280;451;47.988;7.842;2023-01-30T16:54:22;99279.94;;;3.42;96.70
929;BME280;451;47.988;7.842;2023-01-30T17:03:31;99387.63;;;4.38;95.40
929;BME280;451;47.988;7.842;2023-01-30T17:12:47;99398.28;;;4.59;93.77
929;BME280;451;47.988;7.842;2023-01-30T17:21:52;99406.00;;;4.60;94.53
929;BME280;451;47.988;7.842;2023-01-30T17:30:57;99410.38;;;4.60;95.24
929;BME280;451;47.988;7.842;2023-01-30T17:40:02;99396.13;;;4.16;95.82
929;BME280;451;47.988;7.842;2023-01-30T17:49:08;99412.69;;;4.52;92.47
929;BME280;451;47.988;7.842;2023-01-30T17:58:14;99456.41;;;4.59;94.68
929;BME280;451;47.988;7.842;2023-01-30T18:07:17;99407.06;;;5.05;88.39
929;BME280;451;47.988;7.842;2023-01-30T18:16:26;99445.88;;;4.97;88.09
929;BME280;451;47.988;7.842;2023-01-30T18:25:31;99473.44;;;4.76;90.82
929;BME280;451;47.988;7.842;2023-01-30T18:34:35;99475.53;;;5.07;88.72
929;BME280;451;47.988;7.842;2023-01-30T18:43:39;99428.47;;;4.25;90.26
929;BME280;451;47.988;7.842;2023-01-30T18:52:44;99463.69;;;4.67;90.92
929;BME280;451;47.988;7.842;2023-01-30T19:01:47;99473.72;;;4.47;93.55
929;BME280;451;47.988;7.842;2023-01-30T19:10:52;99470.72;;;4.28;95.68
929;BME280;451;47.988;7.842;2023-01-30T19:19:55;99446.38;;;4.29;96.43
929;BME280;451;47.988;7.842;2023-01-30T19:29:02;99466.72;;;4.97;91.28
929;BME280;451;47.988;7.842;2023-01-30T19:38:05;99457.91;;;4.38;96.83
929;BME280;451;47.988;7.842;2023-01-30T19:47:09;99463.88;;;4.64;93.78
929;BME280;451;47.988;7.842;2023-01-30T19:56:12;99517.00;;;5.10;92.22
929;BME280;451;47.988;7.842;2023-01-30T20:05:17;99536.91;;;5.11;90.59
929;BME280;451;47.988;7.842;2023-01-30T20:14:21;99547.00;;;5.40;90.89
929;BME280;451;47.988;7.842;2023-01-30T20:23:25;99545.78;;;5.80;86.77
929;BME280;451;47.988;7.842;2023-01-30T20:32:28;99558.38;;;5.39;90.02
929;BME280;451;47.988;7.842;2023-01-30T20:41:36;99551.41;;;5.39;88.80
929;BME280;451;47.988;7.842;2023-01-30T20:50:39;99554.22;;;4.51;96.45
929;BME280;451;47.988;7.842;2023-01-30T20:59:43;99586.59;;;4.46;98.89
929;BME280;451;47.988;7.842;2023-01-30T21:08:47;99590.13;;;5.80;92.64
929;BME280;451;47.988;7.842;2023-01-30T21:17:52;99484.84;;;4.99;88.74
929;BME280;451;47.988;7.842;2023-01-30T21:26:55;99613.38;;;5.36;92.36
929;BME280;451;47.988;7.842;2023-01-30T21:36:00;99628.56;;;5.42;91.17
929;BME280;451;47.988;7.842;2023-01-30T21:45:04;99625.44;;;5.49;91.32
929;BME280;451;47.988;7.842;2023-01-30T21:54:09;99641.28;;;5.70;89.71
929;BME280;451;47.988;7.842;2023-01-30T22:03:12;99638.44;;;5.00;91.29
929;BME280;451;47.988;7.842;2023-01-30T22:12:16;99661.47;;;4.81;94.52
929;BME280;451;47.988;7.842;2023-01-30T22:21:21;99565.81;;;3.82;97.59
929;BME280;451;47.988;7.842;2023-01-30T22:30:26;99677.66;;;4.99;95.47
929;BME280;451;47.988;7.842;2023-01-30T22:39:29;99670.78;;;4.85;94.67
929;BME280;451;47.988;7.842;2023-01-30T22:48:34;99650.25;;;4.03;97.47
929;BME280;451;47.988;7.842;2023-01-30T22:57:37;99694.09;;;4.61;97.57
929;BME280;451;47.988;7.842;2023-01-30T23:06:42;99678.16;;;5.16;92.19
929;BME280;451;47.988;7.842;2023-01-30T23:15:45;99633.66;;;4.31;95.04
929;BME280;451;47.988;7.842;2023-01-30T23:24:49;99679.16;;;4.51;97.29
929;BME280;451;47.988;7.842;2023-01-30T23:33:53;99648.47;;;3.77;100.00
929;BME280;451;47.988;7.842;2023-01-30T23:42:57;99664.13;;;3.07;100.00
929;BME280;451;47.988;7.842;2023-01-30T23:52:00;99660.59;;;2.80;100.00
